Time;durP1;ratioP1;P1;durP2;ratioP2;P2;SDS_P1;SDS_P2;PMS_P1;PMS_P2;Temp;Humidity;BMP_temperature;BMP_pressure;BME280_temperature;BME280_humidity;BME280_pressure;Samples;Min_cycle;Max_cycle;Signal;HPM_P1;HPM_P2
2022/06/08 00:01:49;;;;;;;;;;;25.20;50.60;;;;;;1550589;75;1654;-57
2022/06/08 00:03:51;;;;;;;;;;;25.20;50.60;;;;;;1544667;75;791;-59
2022/06/08 00:05:53;;;;;;;;;;;25.30;50.50;;;;;;1544546;76;1150;-58
2022/06/08 00:07:55;;;;;;;;;;;25.30;50.50;;;;;;1547513;75;772;-58
2022/06/08 00:09:59;;;;;;;;;;;25.30;50.50;;;;;;1544470;75;756;-60
2022/06/08 00:12:02;;;;;;;;;;;25.30;50.50;;;;;;1542384;76;800;-58
2022/06/08 00:14:03;;;;;;;;;;;25.30;50.50;;;;;;1544552;76;723;-60
2022/06/08 00:16:06;;;;;;;;;;;25.20;50.50;;;;;;1547763;75;1948;-60
2022/06/08 00:18:09;;;;;;;;;;;25.20;50.50;;;;;;1547719;75;732;-60
2022/06/08 00:20:12;;;;;;;;;;;25.20;50.60;;;;;;1536013;76;730;-60
2022/06/08 00:22:13;;;;;;;;;;;25.20;50.60;;;;;;1544631;75;769;-60
2022/06/08 00:24:15;;;;;;;;;;;25.30;50.60;;;;;;1537598;76;727;-57
2022/06/08 00:26:17;;;;;;;;;;;25.20;50.60;;;;;;1539591;76;1126;-58
2022/06/08 00:28:19;;;;;;;;;;;25.20;50.50;;;;;;1539771;75;768;-57
2022/06/08 00:30:21;;;;;;;;;;;25.20;50.50;;;;;;1542946;76;1588;-57
2022/06/08 00:32:23;;;;;;;;;;;25.20;50.60;;;;;;1540764;75;736;-60
2022/06/08 00:34:25;;;;;;;;;;;25.20;50.50;;;;;;1541487;76;1975;-59
2022/06/08 00:36:27;;;;;;;;;;;25.20;50.60;;;;;;1554969;75;1189;-60
2022/06/08 00:38:29;;;;;;;;;;;25.20;50.60;;;;;;1546181;76;698;-59
2022/06/08 00:40:32;;;;;;;;;;;25.10;50.60;;;;;;1544325;75;806;-58
2022/06/08 00:42:34;;;;;;;;;;;25.20;50.70;;;;;;1539537;75;1604;-57
2022/06/08 00:44:40;;;;;;;;;;;25.20;50.60;;;;;;1549534;75;737;-60
2022/06/08 00:46:42;;;;;;;;;;;25.20;50.60;;;;;;1534336;76;1130;-60
2022/06/08 00:48:46;;;;;;;;;;;25.20;50.70;;;;;;1552167;75;789;-60
2022/06/08 00:50:48;;;;;;;;;;;25.20;50.60;;;;;;1536414;75;755;-61
2022/06/08 00:52:51;;;;;;;;;;;25.20;50.60;;;;;;1544525;75;710;-59
2022/06/08 00:54:54;;;;;;;;;;;25.20;50.60;;;;;;1544351;76;1921;-59
2022/06/08 00:56:58;;;;;;;;;;;25.20;50.60;;;;;;1544159;75;1541;-60
2022/06/08 00:59:00;;;;;;;;;;;25.20;50.60;;;;;;1536612;75;1826;-57
2022/06/08 01:01:02;;;;;;;;;;;25.20;50.60;;;;;;1546656;75;766;-59
2022/06/08 01:03:04;;;;;;;;;;;25.20;50.70;;;;;;1551629;75;778;-60
2022/06/08 01:05:19;;;;;;;;;;;25.20;50.50;;;;;;1541354;75;755;-59
2022/06/08 01:07:21;;;;;;;;;;;25.20;50.50;;;;;;1549142;75;694;-60
2022/06/08 01:09:28;;;;;;;;;;;25.20;50.50;;;;;;1557553;75;727;-60
2022/06/08 01:11:34;;;;;;;;;;;25.20;50.50;;;;;;1543085;75;1588;-60
2022/06/08 01:13:36;;;;;;;;;;;25.30;50.50;;;;;;1547532;76;706;-60
2022/06/08 01:15:38;;;;;;;;;;;25.20;50.60;;;;;;1542595;76;1911;-59
2022/06/08 01:17:40;;;;;;;;;;;25.30;50.50;;;;;;1543523;76;698;-59
2022/06/08 01:19:44;;;;;;;;;;;25.20;50.50;;;;;;1548166;76;674;-58
2022/06/08 01:21:47;;;;;;;;;;;25.30;50.60;;;;;;1535102;75;935;-60
2022/06/08 01:23:49;;;;;;;;;;;25.20;50.50;;;;;;1537279;75;671;-60
2022/06/08 01:26:09;;;;;;;;;;;25.20;50.50;;;;;;1532536;75;1580;-60
2022/06/08 01:28:13;;;;;;;;;;;25.20;50.50;;;;;;1543690;75;769;-60
2022/06/08 01:30:25;;;;;;;;;;;25.20;50.60;;;;;;1542134;75;1821;-59
2022/06/08 01:32:38;;;;;;;;;;;25.20;50.60;;;;;;1553219;75;726;-58
2022/06/08 01:34:59;;;;;;;;;;;25.20;50.70;;;;;;1541265;75;751;-58
2022/06/08 01:37:05;;;;;;;;;;;25.20;50.70;;;;;;1546614;75;1104;-57
2022/06/08 01:39:09;;;;;;;;;;;25.20;50.70;;;;;;1554425;76;1522;-58
2022/06/08 01:41:30;;;;;;;;;;;25.20;50.60;;;;;;1544226;75;802;-58
2022/06/08 01:43:40;;;;;;;;;;;25.20;50.70;;;;;;1554526;75;1862;-60
2022/06/08 01:45:55;;;;;;;;;;;25.10;50.70;;;;;;1547641;75;1169;-60
2022/06/08 01:48:02;;;;;;;;;;;25.10;50.80;;;;;;1539849;76;732;-56
2022/06/08 01:50:17;;;;;;;;;;;25.10;50.90;;;;;;1536699;75;1910;-58
2022/06/08 01:52:21;;;;;;;;;;;25.10;50.80;;;;;;1555572;76;1983;-59
2022/06/08 01:54:24;;;;;;;;;;;25.10;50.80;;;;;;1538842;76;1919;-59
2022/06/08 01:56:44;;;;;;;;;;;25.10;50.80;;;;;;1505507;77;1949;-59
2022/06/08 01:58:51;;;;;;;;;;;25.20;50.80;;;;;;1541052;76;761;-60
2022/06/08 02:01:07;;;;;;;;;;;25.10;50.80;;;;;;1543274;75;2026;-60
2022/06/08 02:03:25;;;;;;;;;;;25.10;50.80;;;;;;1484884;77;1182;-60
2022/06/08 02:05:41;;;;;;;;;;;25.20;50.80;;;;;;1541568;75;1109;-57
2022/06/08 02:07:49;;;;;;;;;;;25.10;50.90;;;;;;1543959;75;1603;-58
2022/06/08 02:09:53;;;;;;;;;;;25.10;50.80;;;;;;1555042;75;755;-57
2022/06/08 02:11:56;;;;;;;;;;;25.10;50.70;;;;;;1534666;76;770;-58
2022/06/08 02:13:59;;;;;;;;;;;25.10;50.80;;;;;;1541129;75;1824;-60
2022/06/08 02:16:03;;;;;;;;;;;25.10;50.70;;;;;;1554358;75;1930;-56
2022/06/08 02:18:07;;;;;;;;;;;25.10;50.70;;;;;;1536614;76;759;-60
2022/06/08 02:20:10;;;;;;;;;;;25.10;50.80;;;;;;1537400;75;840;-59
2022/06/08 02:22:14;;;;;;;;;;;25.10;50.90;;;;;;1541924;75;1591;-57
2022/06/08 02:24:18;;;;;;;;;;;25.10;50.80;;;;;;1538846;75;705;-60
2022/06/08 02:26:21;;;;;;;;;;;25.20;50.90;;;;;;1543877;75;1166;-60
2022/06/08 02:28:27;;;;;;;;;;;25.10;50.90;;;;;;1544459;76;698;-59
2022/06/08 02:30:31;;;;;;;;;;;25.10;50.90;;;;;;1556127;75;778;-59
2022/06/08 02:34:54;;;;;;;;;;;25.10;50.90;;;;;;1535574;75;1637;-59
2022/06/08 02:37:17;;;;;;;;;;;25.10;50.90;;;;;;1550329;75;1943;-60
2022/06/08 02:39:21;;;;;;;;;;;25.10;50.90;;;;;;1546215;75;705;-60
2022/06/08 02:41:23;;;;;;;;;;;25.10;50.90;;;;;;1554683;75;833;-60
2022/06/08 02:43:26;;;;;;;;;;;25.10;50.90;;;;;;1538948;75;664;-58
2022/06/08 02:45:30;;;;;;;;;;;25.10;50.90;;;;;;1549917;75;1882;-57
2022/06/08 02:47:32;;;;;;;;;;;25.10;50.90;;;;;;1542691;75;709;-60
2022/06/08 02:49:34;;;;;;;;;;;25.10;50.90;;;;;;1544271;76;1609;-59
2022/06/08 02:51:37;;;;;;;;;;;25.10;50.90;;;;;;1537888;75;774;-60
2022/06/08 02:53:40;;;;;;;;;;;25.10;50.90;;;;;;1545801;75;706;-60
2022/06/08 02:55:43;;;;;;;;;;;25.10;51.00;;;;;;1532783;75;1923;-59
2022/06/08 02:57:52;;;;;;;;;;;25.10;50.90;;;;;;1544654;75;1887;-57
2022/06/08 03:00:02;;;;;;;;;;;25.10;50.80;;;;;;1544221;76;751;-59
2022/06/08 03:02:20;;;;;;;;;;;25.10;51.00;;;;;;1542466;75;1139;-58
2022/06/08 03:04:23;;;;;;;;;;;25.10;50.90;;;;;;1539410;75;1527;-58
2022/06/08 03:06:29;;;;;;;;;;;25.10;50.90;;;;;;1547154;75;1169;-60
2022/06/08 03:08:32;;;;;;;;;;;25.10;51.00;;;;;;1527597;76;1377;-59
2022/06/08 03:10:34;;;;;;;;;;;25.10;51.00;;;;;;1545469;75;742;-59
2022/06/08 03:12:37;;;;;;;;;;;25.10;51.00;;;;;;1543563;76;699;-59
2022/06/08 03:14:42;;;;;;;;;;;25.10;50.90;;;;;;1544170;75;757;-60
2022/06/08 03:16:53;;;;;;;;;;;25.10;50.90;;;;;;1550672;75;1939;-57
2022/06/08 03:18:55;;;;;;;;;;;25.10;51.00;;;;;;1539195;75;1966;-58
2022/06/08 03:20:58;;;;;;;;;;;25.10;50.90;;;;;;1554889;75;740;-57
2022/06/08 03:22:59;;;;;;;;;;;25.10;50.90;;;;;;1544897;75;683;-57
2022/06/08 03:25:01;;;;;;;;;;;25.10;50.80;;;;;;1536771;75;808;-59
2022/06/08 03:27:05;;;;;;;;;;;25.10;50.90;;;;;;1536188;75;1162;-60
2022/06/08 03:29:07;;;;;;;;;;;25.10;50.90;;;;;;1536786;75;742;-59
2022/06/08 03:31:09;;;;;;;;;;;25.10;50.80;;;;;;1543322;76;780;-57
2022/06/08 03:33:11;;;;;;;;;;;25.10;51.00;;;;;;1543437;76;1631;-60
2022/06/08 03:35:12;;;;;;;;;;;25.10;50.80;;;;;;1541993;76;682;-58
2022/06/08 03:37:15;;;;;;;;;;;25.10;50.80;;;;;;1550793;75;1947;-58
2022/06/08 03:39:16;;;;;;;;;;;25.10;50.70;;;;;;1545513;75;755;-60
2022/06/08 03:41:18;;;;;;;;;;;25.00;50.80;;;;;;1556409;75;824;-59
2022/06/08 03:43:20;;;;;;;;;;;25.10;50.70;;;;;;1543278;75;830;-60
2022/06/08 03:45:22;;;;;;;;;;;25.10;50.80;;;;;;1547125;75;1564;-59
2022/06/08 03:47:25;;;;;;;;;;;25.10;50.80;;;;;;1544795;75;828;-59
2022/06/08 03:49:27;;;;;;;;;;;25.10;50.80;;;;;;1544491;75;598;-60
2022/06/08 03:51:29;;;;;;;;;;;25.10;50.80;;;;;;1544208;76;609;-57
2022/06/08 03:53:35;;;;;;;;;;;25.10;50.90;;;;;;1540090;76;781;-60
2022/06/08 03:55:37;;;;;;;;;;;25.20;50.90;;;;;;1548350;75;1944;-60
2022/06/08 03:57:41;;;;;;;;;;;25.10;51.00;;;;;;1530089;75;680;-60
2022/06/08 03:59:43;;;;;;;;;;;25.10;50.90;;;;;;1556746;75;1496;-60
2022/06/08 04:01:45;;;;;;;;;;;25.10;51.00;;;;;;1550841;75;696;-59
2022/06/08 04:03:50;;;;;;;;;;;25.20;50.90;;;;;;1549028;75;717;-58
2022/06/08 04:05:50;;;;;;;;;;;25.10;50.80;;;;;;1543979;76;1664;-60
2022/06/08 04:07:52;;;;;;;;;;;25.20;50.90;;;;;;1544459;76;765;-60
2022/06/08 04:09:54;;;;;;;;;;;25.10;50.80;;;;;;1533096;75;928;-60
2022/06/08 04:11:56;;;;;;;;;;;25.10;50.80;;;;;;1537779;75;676;-60
2022/06/08 04:13:59;;;;;;;;;;;25.10;50.80;;;;;;1549343;75;1536;-58
2022/06/08 04:16:02;;;;;;;;;;;25.10;50.80;;;;;;1549281;75;1955;-58
2022/06/08 04:18:04;;;;;;;;;;;25.10;50.80;;;;;;1547633;75;787;-58
2022/06/08 04:20:06;;;;;;;;;;;25.10;50.80;;;;;;1543688;75;880;-59
2022/06/08 04:22:08;;;;;;;;;;;25.10;50.80;;;;;;1544620;76;801;-56
2022/06/08 04:24:10;;;;;;;;;;;25.10;50.90;;;;;;1544419;76;797;-59
2022/06/08 04:26:12;;;;;;;;;;;25.10;50.90;;;;;;1548884;75;1143;-60
2022/06/08 04:28:14;;;;;;;;;;;25.10;50.80;;;;;;1551068;75;1575;-60
2022/06/08 04:30:16;;;;;;;;;;;25.10;50.90;;;;;;1538595;75;733;-58
2022/06/08 04:32:17;;;;;;;;;;;25.10;50.80;;;;;;1551769;75;702;-59
2022/06/08 04:34:19;;;;;;;;;;;25.10;50.80;;;;;;1547495;75;617;-60
2022/06/08 04:36:21;;;;;;;;;;;25.10;50.90;;;;;;1548293;76;1951;-58
2022/06/08 04:38:23;;;;;;;;;;;25.10;50.80;;;;;;1538702;75;766;-60
2022/06/08 04:40:25;;;;;;;;;;;25.10;50.80;;;;;;1542956;76;807;-60
2022/06/08 04:42:27;;;;;;;;;;;25.10;50.80;;;;;;1545105;75;1396;-59
2022/06/08 04:44:29;;;;;;;;;;;25.10;50.90;;;;;;1545563;75;732;-57
2022/06/08 04:46:31;;;;;;;;;;;25.10;50.90;;;;;;1544229;75;1189;-59
2022/06/08 04:48:33;;;;;;;;;;;25.10;50.80;;;;;;1544548;75;663;-59
2022/06/08 04:50:34;;;;;;;;;;;25.00;50.90;;;;;;1539921;75;727;-57
2022/06/08 04:52:37;;;;;;;;;;;25.10;50.80;;;;;;1545245;75;741;-60
2022/06/08 04:54:39;;;;;;;;;;;25.10;50.70;;;;;;1546114;75;812;-56
2022/06/08 04:56:40;;;;;;;;;;;25.10;50.80;;;;;;1544398;75;1979;-57
2022/06/08 04:58:42;;;;;;;;;;;25.10;50.80;;;;;;1546067;75;734;-59
2022/06/08 05:00:44;;;;;;;;;;;25.10;50.80;;;;;;1548943;75;771;-60
2022/06/08 05:02:48;;;;;;;;;;;25.10;50.70;;;;;;1544349;76;743;-59
2022/06/08 05:04:50;;;;;;;;;;;25.10;50.70;;;;;;1540044;76;747;-56
2022/06/08 05:06:52;;;;;;;;;;;25.10;50.70;;;;;;1541246;76;1151;-57
2022/06/08 05:08:53;;;;;;;;;;;25.10;50.70;;;;;;1543890;75;739;-57
2022/06/08 05:10:57;;;;;;;;;;;25.10;50.80;;;;;;1544154;75;1546;-59
2022/06/08 05:12:59;;;;;;;;;;;25.10;50.70;;;;;;1549023;75;730;-58
2022/06/08 05:15:01;;;;;;;;;;;25.10;50.80;;;;;;1542393;76;802;-58
2022/06/08 05:17:03;;;;;;;;;;;25.10;50.70;;;;;;1542612;75;1926;-59
2022/06/08 05:19:05;;;;;;;;;;;25.10;50.50;;;;;;1540797;75;783;-59
2022/06/08 05:21:07;;;;;;;;;;;25.10;50.40;;;;;;1548063;76;732;-58
2022/06/08 05:23:10;;;;;;;;;;;25.10;50.30;;;;;;1553553;75;755;-57
2022/06/08 05:25:13;;;;;;;;;;;25.10;50.30;;;;;;1518466;77;1563;-59
2022/06/08 05:27:15;;;;;;;;;;;25.10;50.40;;;;;;1543411;75;1082;-61
2022/06/08 05:29:17;;;;;;;;;;;25.10;50.50;;;;;;1544130;75;807;-61
2022/06/08 05:31:19;;;;;;;;;;;25.10;50.40;;;;;;1552530;75;720;-60
2022/06/08 05:33:21;;;;;;;;;;;25.00;50.40;;;;;;1555642;75;716;-58
2022/06/08 05:35:23;;;;;;;;;;;25.10;50.40;;;;;;1541894;75;1168;-58
2022/06/08 05:37:25;;;;;;;;;;;25.00;50.40;;;;;;1550950;75;1927;-58
2022/06/08 05:39:27;;;;;;;;;;;25.00;50.30;;;;;;1554490;75;1639;-58
2022/06/08 05:41:29;;;;;;;;;;;25.00;50.30;;;;;;1543544;75;754;-58
2022/06/08 05:43:31;;;;;;;;;;;25.00;50.40;;;;;;1542094;75;701;-58
2022/06/08 05:45:33;;;;;;;;;;;25.00;50.30;;;;;;1544115;75;1118;-58
2022/06/08 05:47:35;;;;;;;;;;;25.00;50.30;;;;;;1542870;76;794;-57
2022/06/08 05:49:37;;;;;;;;;;;25.00;50.20;;;;;;1552196;76;678;-59
2022/06/08 05:51:39;;;;;;;;;;;24.90;50.20;;;;;;1548681;75;807;-60
2022/06/08 05:53:40;;;;;;;;;;;24.90;50.20;;;;;;1543918;75;1529;-57
2022/06/08 05:55:43;;;;;;;;;;;25.00;50.20;;;;;;1544145;75;1155;-60
2022/06/08 05:57:45;;;;;;;;;;;24.90;50.10;;;;;;1552325;75;1917;-58
2022/06/08 05:59:47;;;;;;;;;;;24.90;50.00;;;;;;1544199;75;790;-60
2022/06/08 06:01:49;;;;;;;;;;;25.00;50.00;;;;;;1539813;76;781;-60
2022/06/08 06:03:54;;;;;;;;;;;25.00;49.70;;;;;;1540673;75;752;-58
2022/06/08 06:05:57;;;;;;;;;;;25.00;49.80;;;;;;1544431;75;1154;-58
2022/06/08 06:07:59;;;;;;;;;;;25.00;49.80;;;;;;1542967;75;759;-58
2022/06/08 06:10:03;;;;;;;;;;;25.00;49.80;;;;;;1554830;76;729;-57
2022/06/08 06:12:05;;;;;;;;;;;25.00;49.70;;;;;;1552773;75;1646;-59
2022/06/08 06:14:07;;;;;;;;;;;25.00;49.70;;;;;;1544719;75;747;-60
2022/06/08 06:16:09;;;;;;;;;;;25.00;49.70;;;;;;1543831;75;1167;-60
2022/06/08 06:18:11;;;;;;;;;;;24.90;49.60;;;;;;1543612;75;1936;-57
2022/06/08 06:20:13;;;;;;;;;;;24.90;49.60;;;;;;1536129;75;1494;-58
2022/06/08 06:22:15;;;;;;;;;;;24.90;49.50;;;;;;1542489;76;784;-61
2022/06/08 06:24:17;;;;;;;;;;;24.90;49.50;;;;;;1549447;76;753;-61
2022/06/08 06:26:19;;;;;;;;;;;25.00;49.30;;;;;;1549054;75;1142;-61
2022/06/08 06:28:21;;;;;;;;;;;25.00;49.30;;;;;;1543703;75;824;-59
2022/06/08 06:30:23;;;;;;;;;;;25.00;49.30;;;;;;1547232;75;798;-61
2022/06/08 06:32:26;;;;;;;;;;;24.90;49.30;;;;;;1538930;76;687;-58
2022/06/08 06:34:29;;;;;;;;;;;24.90;49.20;;;;;;1541102;76;1539;-58
2022/06/08 06:36:31;;;;;;;;;;;24.90;49.20;;;;;;1554825;75;1931;-58
2022/06/08 06:38:33;;;;;;;;;;;24.80;49.20;;;;;;1547090;75;787;-60
2022/06/08 06:40:36;;;;;;;;;;;24.80;49.20;;;;;;1544245;76;690;-58
2022/06/08 06:42:37;;;;;;;;;;;24.90;49.20;;;;;;1532302;76;737;-57
2022/06/08 06:44:39;;;;;;;;;;;24.80;49.10;;;;;;1553071;75;752;-57
2022/06/08 06:46:41;;;;;;;;;;;24.80;49.10;;;;;;1539653;76;1236;-60
2022/06/08 06:48:43;;;;;;;;;;;24.80;49.10;;;;;;1543305;75;1558;-58
2022/06/08 06:50:45;;;;;;;;;;;24.80;49.00;;;;;;1544445;76;722;-58
2022/06/08 06:52:47;;;;;;;;;;;24.80;49.00;;;;;;1544261;76;681;-60
2022/06/08 06:54:49;;;;;;;;;;;24.80;49.00;;;;;;1544234;75;770;-60
2022/06/08 06:56:51;;;;;;;;;;;24.80;49.00;;;;;;1539279;75;1949;-58
2022/06/08 06:58:53;;;;;;;;;;;24.80;48.90;;;;;;1549661;75;765;-57
2022/06/08 07:00:55;;;;;;;;;;;24.80;48.90;;;;;;1544424;76;733;-59
2022/06/08 07:02:56;;;;;;;;;;;24.80;48.90;;;;;;1550158;76;1296;-60
2022/06/08 07:04:58;;;;;;;;;;;24.80;48.90;;;;;;1540471;76;717;-56
2022/06/08 07:07:00;;;;;;;;;;;24.80;48.90;;;;;;1539361;76;1116;-61
2022/06/08 07:09:02;;;;;;;;;;;24.80;48.80;;;;;;1549922;75;842;-60
2022/06/08 07:13:24;;;;;;;;;;;24.80;48.80;;;;;;1536043;76;1636;-59
2022/06/08 07:15:26;;;;;;;;;;;24.80;48.70;;;;;;1540746;75;1146;-59
2022/06/08 07:17:28;;;;;;;;;;;24.80;48.80;;;;;;1543864;75;1923;-58
2022/06/08 07:19:30;;;;;;;;;;;24.80;48.70;;;;;;1537724;76;717;-59
2022/06/08 07:21:32;;;;;;;;;;;24.80;48.70;;;;;;1543954;75;704;-58
2022/06/08 07:23:34;;;;;;;;;;;24.80;48.70;;;;;;1539442;75;756;-60
2022/06/08 07:25:36;;;;;;;;;;;24.80;48.60;;;;;;1544458;75;1138;-59
2022/06/08 07:27:38;;;;;;;;;;;24.80;48.60;;;;;;1543183;76;780;-60
2022/06/08 07:29:39;;;;;;;;;;;24.80;48.60;;;;;;1547444;75;917;-59
2022/06/08 07:31:41;;;;;;;;;;;24.80;48.50;;;;;;1534426;76;1548;-58
2022/06/08 07:33:43;;;;;;;;;;;24.80;48.50;;;;;;1552976;75;819;-58
2022/06/08 07:35:46;;;;;;;;;;;24.80;48.40;;;;;;1544422;76;1149;-61
2022/06/08 07:37:48;;;;;;;;;;;24.80;48.50;;;;;;1544506;76;1960;-60
2022/06/08 07:39:50;;;;;;;;;;;24.80;48.50;;;;;;1543392;75;866;-58
2022/06/08 07:41:51;;;;;;;;;;;24.80;48.40;;;;;;1544074;75;801;-59
2022/06/08 07:43:53;;;;;;;;;;;24.90;48.50;;;;;;1539351;76;796;-60
2022/06/08 07:45:55;;;;;;;;;;;24.80;48.30;;;;;;1541801;75;1383;-59
2022/06/08 07:50:17;;;;;;;;;;;24.80;48.30;;;;;;1545363;75;1697;-59
2022/06/08 07:52:20;;;;;;;;;;;24.80;48.20;;;;;;1546395;75;695;-59
2022/06/08 07:54:22;;;;;;;;;;;24.80;48.20;;;;;;1538381;75;756;-60
2022/06/08 07:56:24;;;;;;;;;;;24.80;48.20;;;;;;1544144;75;1138;-58
2022/06/08 07:58:26;;;;;;;;;;;24.80;48.20;;;;;;1552956;75;1938;-60
2022/06/08 08:00:28;;;;;;;;;;;24.80;48.20;;;;;;1544007;75;1833;-59
2022/06/08 08:02:30;;;;;;;;;;;24.80;48.10;;;;;;1543285;76;771;-59
2022/06/08 08:04:32;;;;;;;;;;;24.80;48.10;;;;;;1539485;75;706;-58
2022/06/08 08:06:34;;;;;;;;;;;24.80;48.10;;;;;;1537033;76;1149;-58
2022/06/08 08:08:41;;;;;;;;;;;24.80;48.10;;;;;;1544382;76;800;-59
2022/06/08 08:10:40;;;;;;;;;;;24.80;48.00;;;;;;1538120;76;1481;-60
2022/06/08 08:12:42;;;;;;;;;;;24.80;48.00;;;;;;1532772;75;1566;-60
2022/06/08 08:14:44;;;;;;;;;;;24.90;48.10;;;;;;1550348;75;813;-56
2022/06/08 08:16:46;;;;;;;;;;;24.90;48.10;;;;;;1550720;75;1160;-59
2022/06/08 08:18:48;;;;;;;;;;;24.90;48.10;;;;;;1538136;76;1935;-60
2022/06/08 08:20:50;;;;;;;;;;;24.90;48.00;;;;;;1543232;75;713;-61
2022/06/08 08:22:52;;;;;;;;;;;24.80;47.90;;;;;;1546257;75;778;-58
2022/06/08 08:24:53;;;;;;;;;;;24.80;47.80;;;;;;1540040;75;772;-58
2022/06/08 08:26:56;;;;;;;;;;;24.90;48.00;;;;;;1546448;75;1597;-58
2022/06/08 08:28:58;;;;;;;;;;;24.90;47.90;;;;;;1540796;75;788;-58
2022/06/08 08:30:59;;;;;;;;;;;24.80;47.80;;;;;;1552408;75;757;-59
2022/06/08 08:33:01;;;;;;;;;;;24.80;47.80;;;;;;1555904;75;706;-60
2022/06/08 08:35:03;;;;;;;;;;;24.90;47.90;;;;;;1543046;76;798;-58
2022/06/08 08:37:05;;;;;;;;;;;24.90;47.80;;;;;;1556877;75;1120;-60
2022/06/08 08:39:07;;;;;;;;;;;24.90;47.80;;;;;;1545608;76;1929;-61
2022/06/08 08:42:20;;;;;;;;;;;24.80;47.70;;;;;;1545640;75;1520;-57
2022/06/08 08:43:15;;;;;;;;;;;24.90;47.70;;;;;;1536484;76;1443;-59
2022/06/08 08:45:17;;;;;;;;;;;24.90;47.70;;;;;;1551439;75;1803;-60
2022/06/08 08:47:33;;;;;;;;;;;24.90;47.70;;;;;;1544476;76;1093;-59
2022/06/08 08:49:35;;;;;;;;;;;24.90;47.60;;;;;;1538632;75;724;-61
2022/06/08 08:51:38;;;;;;;;;;;24.80;47.60;;;;;;1542215;76;699;-59
2022/06/08 08:53:43;;;;;;;;;;;24.80;47.60;;;;;;1543772;75;1844;-57
2022/06/08 08:55:49;;;;;;;;;;;24.90;47.60;;;;;;1556653;75;1592;-58
2022/06/08 08:58:08;;;;;;;;;;;24.80;47.40;;;;;;1539531;76;1932;-60
2022/06/08 09:00:15;;;;;;;;;;;24.90;47.50;;;;;;1556950;75;827;-60
2022/06/08 09:03:14;;;;;;;;;;;24.80;47.30;;;;;;1543914;76;1023;-59
2022/06/08 09:04:29;;;;;;;;;;;24.90;47.50;;;;;;1534793;75;1492;-60
2022/06/08 09:06:31;;;;;;;;;;;24.80;47.30;;;;;;1550194;75;1149;-59
2022/06/08 09:08:33;;;;;;;;;;;24.80;47.30;;;;;;1544196;75;722;-58
2022/06/08 09:10:35;;;;;;;;;;;24.90;47.30;;;;;;1545006;75;1600;-57
2022/06/08 09:12:37;;;;;;;;;;;24.90;47.20;;;;;;1540039;75;702;-59
2022/06/08 09:14:47;;;;;;;;;;;24.90;47.20;;;;;;1543642;76;746;-58
2022/06/08 09:16:49;;;;;;;;;;;24.90;47.20;;;;;;1550080;75;1139;-60
2022/06/08 09:18:51;;;;;;;;;;;24.90;47.10;;;;;;1548630;76;1924;-59
2022/06/08 09:20:53;;;;;;;;;;;24.90;47.10;;;;;;1536784;76;751;-58
2022/06/08 09:22:55;;;;;;;;;;;25.00;47.10;;;;;;1532054;76;1530;-58
2022/06/08 09:24:58;;;;;;;;;;;25.00;47.00;;;;;;1544006;76;745;-56
2022/06/08 09:27:14;;;;;;;;;;;24.90;47.00;;;;;;1552227;75;1114;-60
2022/06/08 09:29:17;;;;;;;;;;;24.90;47.00;;;;;;1549986;76;807;-59
2022/06/08 09:31:24;;;;;;;;;;;24.90;46.90;;;;;;1541999;76;683;-59
2022/06/08 09:33:27;;;;;;;;;;;25.00;46.80;;;;;;1539333;76;1023;-59
2022/06/08 09:35:34;;;;;;;;;;;25.00;46.90;;;;;;1541142;75;1694;-58
2022/06/08 09:37:36;;;;;;;;;;;24.90;46.80;;;;;;1550340;76;1928;-60
2022/06/08 09:39:39;;;;;;;;;;;25.00;46.80;;;;;;1556909;75;764;-59
2022/06/08 09:41:42;;;;;;;;;;;24.90;46.90;;;;;;1543754;75;772;-58
2022/06/08 09:43:54;;;;;;;;;;;25.00;46.80;;;;;;1541738;75;1888;-57
2022/06/08 09:46:04;;;;;;;;;;;25.00;46.80;;;;;;1544219;75;1159;-58
2022/06/08 09:53:12;;;;;;;;;;;24.90;46.80;;;;;;1535931;75;1635;-61
2022/06/08 09:55:34;;;;;;;;;;;25.00;46.80;;;;;;1544936;75;776;-60
2022/06/08 09:57:41;;;;;;;;;;;24.90;46.80;;;;;;1543732;75;792;-59
2022/06/08 09:59:47;;;;;;;;;;;25.00;46.70;;;;;;1543581;76;755;-61
2022/06/08 10:01:54;;;;;;;;;;;24.90;46.70;;;;;;1541550;75;1895;-60
2022/06/08 10:04:00;;;;;;;;;;;24.90;46.70;;;;;;1539674;75;1884;-56
2022/06/08 10:06:07;;;;;;;;;;;24.90;46.70;;;;;;1546315;76;1529;-58
2022/06/08 10:08:22;;;;;;;;;;;24.90;46.60;;;;;;1543022;76;796;-58
2022/06/08 10:10:26;;;;;;;;;;;25.00;46.60;;;;;;1543971;75;758;-58
2022/06/08 10:12:42;;;;;;;;;;;24.90;46.50;;;;;;1544637;76;733;-60
2022/06/08 10:15:04;;;;;;;;;;;24.90;46.50;;;;;;1547339;76;790;-55
2022/06/08 10:17:17;;;;;;;;;;;24.90;46.50;;;;;;1540261;75;1133;-59
2022/06/08 10:19:21;;;;;;;;;;;24.90;46.50;;;;;;1542362;76;2205;-60
2022/06/08 10:21:24;;;;;;;;;;;24.90;46.50;;;;;;1534652;76;721;-57
2022/06/08 10:23:27;;;;;;;;;;;24.90;46.50;;;;;;1556002;76;805;-58
2022/06/08 10:25:31;;;;;;;;;;;24.90;46.50;;;;;;1543918;75;1097;-56
2022/06/08 10:27:35;;;;;;;;;;;24.90;46.40;;;;;;1544187;75;701;-57
2022/06/08 10:29:40;;;;;;;;;;;25.00;46.50;;;;;;1545001;76;780;-58
2022/06/08 10:31:47;;;;;;;;;;;24.90;46.40;;;;;;1538436;76;1108;-58
2022/06/08 10:33:51;;;;;;;;;;;25.00;46.40;;;;;;1531615;75;1568;-58
2022/06/08 10:35:55;;;;;;;;;;;24.90;46.30;;;;;;1544099;75;1168;-59
2022/06/08 10:37:57;;;;;;;;;;;24.90;46.30;;;;;;1550241;75;1916;-58
2022/06/08 10:39:59;;;;;;;;;;;25.00;46.30;;;;;;1543136;75;737;-58
2022/06/08 10:44:30;;;;;;;;;;;25.00;46.30;;;;;;1542663;76;1639;-61
2022/06/08 10:46:32;;;;;;;;;;;25.00;46.20;;;;;;1547394;76;1200;-58
2022/06/08 10:48:48;;;;;;;;;;;24.90;46.20;;;;;;1543870;76;1626;-60
2022/06/08 10:50:51;;;;;;;;;;;25.00;46.30;;;;;;1547607;75;731;-58
2022/06/08 10:54:52;;;;;;;;;;;24.90;46.30;;;;;;1540539;76;1959;-57
2022/06/08 10:55:17;;;;;;;;;;;24.90;46.20;;;;;;1538773;76;1463;-60
2022/06/08 10:57:47;;;;;;;;;;;25.00;46.30;;;;;;1542778;76;1206;-60
2022/06/08 10:59:50;;;;;;;;;;;24.90;46.20;;;;;;1532718;75;1926;-58
2022/06/08 11:02:11;;;;;;;;;;;25.00;46.30;;;;;;1543558;75;1647;-58
2022/06/08 11:04:31;;;;;;;;;;;25.00;46.20;;;;;;1532944;76;726;-58
2022/06/08 11:06:51;;;;;;;;;;;25.00;46.20;;;;;;1544075;75;1155;-57
2022/06/08 11:08:53;;;;;;;;;;;25.00;46.30;;;;;;1544206;75;761;-58
2022/06/08 11:10:57;;;;;;;;;;;25.00;46.30;;;;;;1543478;75;744;-59
2022/06/08 11:13:00;;;;;;;;;;;25.00;46.50;;;;;;1543259;76;1525;-59
2022/06/08 11:15:13;;;;;;;;;;;25.10;46.50;;;;;;1534805;76;1873;-59
2022/06/08 11:17:19;;;;;;;;;;;25.10;46.40;;;;;;1548654;76;1742;-61
2022/06/08 11:19:21;;;;;;;;;;;25.10;46.50;;;;;;1544155;76;1935;-59
2022/06/08 11:21:37;;;;;;;;;;;25.20;46.60;;;;;;1544038;75;631;-60
2022/06/08 11:23:43;;;;;;;;;;;25.20;46.70;;;;;;1536672;76;820;-61
2022/06/08 11:25:52;;;;;;;;;;;25.10;46.70;;;;;;1550342;75;1161;-61
2022/06/08 11:28:11;;;;;;;;;;;25.10;46.70;;;;;;1543184;75;772;-60
2022/06/08 11:30:17;;;;;;;;;;;25.10;46.70;;;;;;1485584;78;1610;-60
2022/06/08 11:32:35;;;;;;;;;;;25.10;46.80;;;;;;1500211;76;1007;-59
2022/06/08 11:34:39;;;;;;;;;;;25.10;46.80;;;;;;1542687;75;726;-59
2022/06/08 11:36:58;;;;;;;;;;;25.10;46.80;;;;;;1551583;76;1947;-58
2022/06/08 11:39:02;;;;;;;;;;;25.10;46.80;;;;;;1541106;75;1916;-60
2022/06/08 11:41:23;;;;;;;;;;;25.10;46.80;;;;;;1544270;76;1007;-59
2022/06/08 11:43:26;;;;;;;;;;;25.10;46.70;;;;;;1540424;75;711;-61
2022/06/08 11:45:42;;;;;;;;;;;25.10;46.80;;;;;;1529539;76;1826;-58
2022/06/08 11:47:48;;;;;;;;;;;25.10;46.70;;;;;;1544104;75;779;-60
2022/06/08 11:49:57;;;;;;;;;;;25.10;46.70;;;;;;1545305;76;887;-59
2022/06/08 11:51:59;;;;;;;;;;;25.10;46.60;;;;;;1543526;75;1800;-59
2022/06/08 11:54:05;;;;;;;;;;;25.10;46.60;;;;;;1543157;75;742;-61
2022/06/08 11:56:14;;;;;;;;;;;25.10;46.60;;;;;;1545040;76;1165;-58
2022/06/08 11:58:18;;;;;;;;;;;25.10;46.60;;;;;;1546422;76;1937;-58
2022/06/08 12:00:31;;;;;;;;;;;25.10;46.50;;;;;;1542724;76;1844;-58
2022/06/08 12:02:34;;;;;;;;;;;25.10;46.50;;;;;;1541101;76;818;-58
2022/06/08 12:04:36;;;;;;;;;;;25.10;46.50;;;;;;1532161;76;1823;-59
2022/06/08 12:06:38;;;;;;;;;;;25.10;46.50;;;;;;1539324;75;1197;-59
2022/06/08 12:08:45;;;;;;;;;;;25.10;46.50;;;;;;1542203;76;644;-59
2022/06/08 12:10:47;;;;;;;;;;;25.20;46.40;;;;;;1544948;75;1817;-59
2022/06/08 12:12:49;;;;;;;;;;;25.10;46.40;;;;;;1543788;76;1533;-58
2022/06/08 12:14:51;;;;;;;;;;;25.10;46.30;;;;;;1541985;75;809;-60
2022/06/08 12:17:00;;;;;;;;;;;25.10;46.40;;;;;;1540954;75;1153;-60
2022/06/08 12:19:06;;;;;;;;;;;25.10;46.30;;;;;;1536214;76;1927;-59
2022/06/08 12:21:13;;;;;;;;;;;25.20;46.30;;;;;;1550497;75;764;-60
2022/06/08 12:23:15;;;;;;;;;;;25.10;46.30;;;;;;1545025;75;945;-58
2022/06/08 12:25:18;;;;;;;;;;;25.10;46.20;;;;;;1547531;75;824;-59
2022/06/08 12:27:21;;;;;;;;;;;25.10;46.20;;;;;;1539766;76;1450;-59
2022/06/08 12:29:33;;;;;;;;;;;25.10;46.20;;;;;;1539848;75;740;-59
2022/06/08 12:31:35;;;;;;;;;;;25.20;46.10;;;;;;1534311;75;1094;-60
2022/06/08 12:33:37;;;;;;;;;;;25.10;46.10;;;;;;1541397;75;775;-62
2022/06/08 12:35:40;;;;;;;;;;;25.10;46.10;;;;;;1542316;76;1128;-59